createdAt,value
2022-08-17T00:00:43.215Z,20.32
2022-08-17T00:03:17.503Z,20.18
2022-08-17T00:05:50.817Z,20.15
2022-08-17T00:08:21.837Z,20.25
2022-08-17T00:10:51.563Z,20.03
2022-08-17T00:13:24.073Z,20.12
2022-08-17T00:15:53.242Z,20.11
2022-08-17T00:18:57.427Z,20.01
2022-08-17T00:21:14.552Z,20.16
2022-08-17T00:23:49.164Z,19.84
2022-08-17T00:26:34.914Z,20.11
2022-08-17T00:29:08.292Z,20.03
2022-08-17T00:31:38.150Z,20.00
2022-08-17T00:34:10.268Z,20.03
2022-08-17T00:36:39.053Z,20.10
2022-08-17T00:39:07.764Z,19.70
2022-08-17T00:41:36.695Z,20.10
2022-08-17T00:44:12.358Z,20.00
2022-08-17T00:46:43.715Z,20.00
2022-08-17T00:49:15.371Z,19.98
2022-08-17T00:51:47.500Z,19.89
2022-08-17T00:54:25.079Z,19.80
2022-08-17T00:56:58.088Z,19.86
2022-08-17T00:59:31.102Z,19.82
2022-08-17T01:02:00.830Z,19.49
2022-08-17T01:04:32.954Z,19.81
2022-08-17T01:07:04.571Z,19.83
2022-08-17T01:09:34.147Z,19.81
2022-08-17T01:12:03.015Z,19.69
2022-08-17T01:14:31.838Z,19.67
2022-08-17T01:17:01.468Z,19.58
2022-08-17T01:19:37.351Z,19.53
2022-08-17T01:22:09.417Z,19.45
2022-08-17T01:24:42.785Z,19.56
2022-08-17T01:27:12.319Z,19.57
2022-08-17T01:29:44.899Z,19.62
2022-08-17T01:32:14.235Z,19.39
2022-08-17T01:34:49.488Z,19.46
2022-08-17T01:37:20.031Z,19.52
2022-08-17T01:39:53.666Z,19.65
2022-08-17T01:42:27.722Z,19.73
2022-08-17T01:44:59.985Z,19.72
2022-08-17T01:47:29.819Z,19.65
2022-08-17T01:50:05.273Z,19.67
2022-08-17T01:52:34.464Z,19.68
2022-08-17T01:55:05.815Z,19.64
2022-08-17T01:57:34.771Z,19.63
2022-08-17T02:00:05.239Z,19.67
2022-08-17T02:02:39.836Z,19.56
2022-08-17T02:05:10.398Z,19.56
2022-08-17T02:07:48.012Z,19.48
2022-08-17T02:10:33.619Z,19.58
2022-08-17T02:13:05.263Z,19.53
2022-08-17T02:15:34.792Z,19.43
2022-08-17T02:18:03.661Z,19.37
2022-08-17T02:20:41.951Z,19.51
2022-08-17T02:23:13.772Z,19.53
2022-08-17T02:25:48.865Z,19.59
2022-08-17T02:28:19.089Z,19.65
2022-08-17T02:31:01.048Z,19.64
2022-08-17T02:33:42.611Z,19.44
2022-08-17T02:36:13.955Z,19.59
2022-08-17T02:38:43.435Z,19.58
2022-08-17T02:41:13.758Z,19.58
2022-08-17T02:43:42.574Z,19.51
2022-08-17T02:46:12.779Z,19.57
2022-08-17T02:48:41.863Z,19.63
2022-08-17T02:51:10.949Z,19.56
2022-08-17T02:53:39.673Z,19.61
2022-08-17T02:56:08.586Z,19.54
2022-08-17T02:58:38.905Z,19.55
2022-08-17T03:01:10.331Z,19.52
2022-08-17T03:03:39.523Z,19.60
2022-08-17T03:06:09.459Z,19.68
2022-08-17T03:08:38.619Z,19.20
2022-08-17T03:11:07.290Z,19.74
2022-08-17T03:13:36.134Z,19.74
2022-08-17T03:16:06.785Z,19.78
2022-08-17T03:18:35.663Z,19.84
2022-08-17T03:21:04.950Z,19.87
2022-08-17T03:23:34.053Z,19.56
2022-08-17T03:26:03.168Z,20.03
2022-08-17T03:28:32.539Z,20.01
2022-08-17T03:31:01.396Z,20.12
2022-08-17T03:33:31.827Z,20.11
2022-08-17T03:36:00.671Z,20.18
2022-08-17T03:38:29.319Z,19.85
2022-08-17T03:41:08.405Z,20.27
2022-08-17T03:43:37.081Z,20.31
2022-08-17T03:46:28.272Z,20.25
2022-08-17T03:49:24.727Z,20.30
2022-08-17T03:52:10.820Z,20.42
2022-08-17T03:54:57.411Z,20.48
2022-08-17T03:57:26.884Z,20.45
2022-08-17T03:59:56.615Z,20.58
2022-08-17T04:02:30.337Z,20.36
2022-08-17T04:05:01.038Z,19.99
2022-08-17T04:07:31.784Z,20.53
2022-08-17T04:10:01.186Z,20.33
2022-08-17T04:12:43.245Z,20.49
2022-08-17T04:15:13.387Z,20.53
2022-08-17T04:17:44.279Z,20.58
2022-08-17T04:20:15.860Z,20.78
2022-08-17T04:22:57.487Z,20.73
2022-08-17T04:25:28.335Z,20.78
2022-08-17T04:27:57.782Z,20.94
2022-08-17T04:30:27.323Z,20.99
2022-08-17T04:33:06.344Z,21.05
2022-08-17T04:35:40.842Z,21.07
2022-08-17T04:38:13.108Z,21.06
2022-08-17T04:40:59.763Z,21.16
2022-08-17T04:43:29.383Z,20.99
2022-08-17T04:46:01.069Z,20.87
2022-08-17T04:48:36.499Z,21.06
2022-08-17T04:51:10.578Z,21.27
2022-08-17T04:53:40.086Z,21.20
2022-08-17T04:56:16.253Z,21.32
2022-08-17T04:58:48.326Z,21.13
2022-08-17T05:01:23.728Z,21.31
2022-08-17T05:03:54.156Z,21.44
2022-08-17T05:06:25.163Z,21.38
2022-08-17T05:08:54.320Z,21.58
2022-08-17T05:11:24.024Z,21.48
2022-08-17T05:13:52.998Z,21.35
2022-08-17T05:16:23.664Z,21.53
2022-08-17T05:18:52.621Z,21.71
2022-08-17T05:21:23.018Z,21.29
2022-08-17T05:23:56.255Z,21.31
2022-08-17T05:26:29.288Z,21.70
2022-08-17T05:29:02.588Z,21.90
2022-08-17T05:31:31.949Z,21.98
2022-08-17T05:34:00.644Z,21.89
2022-08-17T05:36:42.368Z,21.97
2022-08-17T05:39:15.951Z,21.73
2022-08-17T05:41:48.021Z,21.85
2022-08-17T05:44:17.873Z,22.11
2022-08-17T05:46:50.089Z,22.22
2022-08-17T05:49:23.173Z,22.02
2022-08-17T05:52:09.910Z,22.34
2022-08-17T05:54:54.807Z,22.40
2022-08-17T05:57:43.487Z,22.73
2022-08-17T06:00:20.712Z,22.86
2022-08-17T06:03:12.895Z,22.97
2022-08-17T06:05:55.427Z,22.89
2022-08-17T06:08:33.352Z,23.37
2022-08-17T06:11:11.760Z,23.11
2022-08-17T06:13:55.575Z,23.34
2022-08-17T06:16:33.134Z,23.36
2022-08-17T06:19:07.547Z,23.82
2022-08-17T06:21:40.479Z,23.89
2022-08-17T06:24:24.469Z,23.08
2022-08-17T06:26:56.750Z,23.31
2022-08-17T06:29:37.343Z,23.54
2022-08-17T06:32:09.299Z,23.94
2022-08-17T06:34:42.417Z,24.19
2022-08-17T06:37:23.147Z,24.30
2022-08-17T06:40:03.803Z,24.39
2022-08-17T06:43:02.818Z,24.60
2022-08-17T06:45:32.974Z,24.81
2022-08-17T06:48:09.165Z,24.77
2022-08-17T06:50:43.387Z,24.89
2022-08-17T06:53:21.150Z,24.93
2022-08-17T06:55:56.554Z,25.11
2022-08-17T06:58:31.370Z,25.26
2022-08-17T07:01:07.047Z,25.01
2022-08-17T07:03:40.799Z,24.88
2022-08-17T07:06:12.354Z,25.10
2022-08-17T07:08:52.375Z,25.39
2022-08-17T07:11:28.726Z,25.52
2022-08-17T07:14:07.031Z,25.88
2022-08-17T07:16:42.192Z,25.89
2022-08-17T07:19:11.289Z,25.89
2022-08-17T07:21:51.754Z,25.96
2022-08-17T07:24:33.223Z,26.13
2022-08-17T07:27:07.731Z,26.06
2022-08-17T07:29:42.827Z,26.33
2022-08-17T07:32:13.676Z,26.47
2022-08-17T07:35:10.677Z,26.26
2022-08-17T07:37:41.946Z,25.99
2022-08-17T07:40:21.086Z,26.30
2022-08-17T07:43:21.836Z,26.18
2022-08-17T07:46:23.071Z,25.55
2022-08-17T07:48:54.946Z,26.54
2022-08-17T07:51:31.611Z,26.84
2022-08-17T07:54:14.151Z,26.88
2022-08-17T07:56:47.029Z,26.67
2022-08-17T07:59:23.042Z,26.66
2022-08-17T08:02:31.705Z,27.05
2022-08-17T08:05:06.774Z,27.16
2022-08-17T08:07:42.639Z,27.20
2022-08-17T08:10:16.961Z,27.44
2022-08-17T08:12:47.983Z,27.29
2022-08-17T08:15:25.755Z,27.64
2022-08-17T08:17:59.374Z,27.65
2022-08-17T08:20:51.767Z,27.53
2022-08-17T08:23:27.141Z,27.87
2022-08-17T08:26:12.364Z,27.72
2022-08-17T08:28:52.573Z,28.46
2022-08-17T08:31:28.608Z,28.24
2022-08-17T08:35:00.514Z,28.22
2022-08-17T08:37:16.469Z,28.29
2022-08-17T08:39:58.715Z,28.48
2022-08-17T08:42:35.834Z,27.97
2022-08-17T08:45:13.790Z,28.81
2022-08-17T08:48:05.502Z,29.12
2022-08-17T08:50:47.699Z,29.26
2022-08-17T08:53:27.402Z,29.93
2022-08-17T08:56:00.170Z,30.08
2022-08-17T08:58:42.032Z,30.00
2022-08-17T09:01:20.095Z,30.17
2022-08-17T09:04:19.684Z,30.60
2022-08-17T09:07:01.953Z,30.54
2022-08-17T09:09:47.651Z,29.84
2022-08-17T09:12:25.370Z,29.76
2022-08-17T09:15:02.665Z,29.51
2022-08-17T09:17:40.034Z,29.54
2022-08-17T09:20:28.245Z,29.42
2022-08-17T09:23:04.020Z,29.42
2022-08-17T09:25:36.178Z,30.24
2022-08-17T09:28:08.667Z,29.58
2022-08-17T09:30:42.731Z,29.76
2022-08-17T09:33:14.433Z,29.98
2022-08-17T09:35:48.091Z,30.43
2022-08-17T09:38:31.768Z,30.84
2022-08-17T09:41:09.465Z,30.36
2022-08-17T09:43:54.924Z,29.89
2022-08-17T09:46:29.891Z,29.44
2022-08-17T09:49:04.523Z,30.57
2022-08-17T09:51:37.124Z,30.70
2022-08-17T09:54:37.977Z,30.84
2022-08-17T09:57:29.752Z,31.52
2022-08-17T10:00:21.485Z,31.85
2022-08-17T10:03:01.888Z,32.45
2022-08-17T10:05:40.276Z,31.79
2022-08-17T10:08:21.811Z,32.03
2022-08-17T10:11:06.893Z,31.80
2022-08-17T10:13:52.657Z,31.88
2022-08-17T10:16:28.664Z,32.62
2022-08-17T10:19:13.890Z,31.42
2022-08-17T10:22:32.307Z,31.91
2022-08-17T10:25:22.881Z,32.73
2022-08-17T10:27:58.500Z,34.50
2022-08-17T10:30:30.580Z,31.79
2022-08-17T10:33:02.344Z,32.08
2022-08-17T10:35:40.362Z,37.82
2022-08-17T10:38:38.233Z,38.21
2022-08-17T10:41:21.261Z,39.77
2022-08-17T10:44:39.217Z,40.32
2022-08-17T10:47:03.353Z,37.61
2022-08-17T10:49:35.116Z,38.88
2022-08-17T10:52:37.110Z,38.46
2022-08-17T10:55:15.053Z,38.68
2022-08-17T10:57:45.554Z,40.75
2022-08-17T11:00:54.560Z,41.08
2022-08-17T11:03:26.420Z,41.52
2022-08-17T11:06:06.498Z,40.46
2022-08-17T11:09:07.957Z,42.00
2022-08-17T11:12:13.466Z,43.16
2022-08-17T11:14:58.012Z,43.08
2022-08-17T11:17:50.889Z,43.78
2022-08-17T11:20:48.949Z,44.05
2022-08-17T11:23:32.673Z,43.74
2022-08-17T11:26:08.638Z,43.85
2022-08-17T11:28:50.401Z,44.29
2022-08-17T11:31:38.761Z,44.17
2022-08-17T11:34:18.562Z,43.26
2022-08-17T11:37:26.122Z,43.23
2022-08-17T11:40:24.526Z,43.64
2022-08-17T11:43:04.912Z,44.97
2022-08-17T11:45:58.212Z,44.87
2022-08-17T11:48:55.075Z,44.94
2022-08-17T11:51:46.554Z,46.10
2022-08-17T11:54:41.424Z,43.49
2022-08-17T11:57:55.641Z,45.22
2022-08-17T12:00:57.605Z,45.04
2022-08-17T12:03:54.019Z,46.24
2022-08-17T12:06:41.111Z,45.62
2022-08-17T12:09:15.849Z,43.60
2022-08-17T12:11:56.276Z,42.28
2022-08-17T12:17:41.586Z,41.28
2022-08-17T12:20:17.766Z,43.03
2022-08-17T12:22:54.920Z,40.48
2022-08-17T12:25:33.104Z,42.51
2022-08-17T12:28:05.500Z,41.45
2022-08-17T12:30:37.797Z,43.33
2022-08-17T12:33:25.412Z,45.71
2022-08-17T12:36:00.130Z,44.85
2022-08-17T12:38:33.960Z,44.54
2022-08-17T12:41:25.579Z,44.75
2022-08-17T12:44:01.711Z,42.47
2022-08-17T12:46:34.907Z,43.73
2022-08-17T12:49:18.681Z,43.73
2022-08-17T12:51:49.003Z,43.66
2022-08-17T12:54:26.960Z,45.48
2022-08-17T12:56:56.172Z,44.65
2022-08-17T12:59:29.961Z,44.67
2022-08-17T13:02:00.424Z,43.34
2022-08-17T13:04:30.016Z,42.97
2022-08-17T13:07:00.158Z,41.55
2022-08-17T13:09:35.752Z,45.12
2022-08-17T13:12:10.960Z,44.02
2022-08-17T13:14:46.457Z,43.86
2022-08-17T13:17:27.501Z,41.68
2022-08-17T13:19:56.302Z,41.61
2022-08-17T13:22:27.902Z,40.19
2022-08-17T13:25:03.729Z,39.51
2022-08-17T13:27:34.037Z,40.24
2022-08-17T13:30:09.413Z,39.99
2022-08-17T13:32:43.836Z,40.42
2022-08-17T13:35:40.985Z,39.60
2022-08-17T13:38:13.308Z,39.36
2022-08-17T13:40:53.283Z,40.15
2022-08-17T13:43:45.672Z,40.25
2022-08-17T13:46:21.796Z,38.94
2022-08-17T13:49:00.945Z,39.41
2022-08-17T13:51:36.047Z,38.19
2022-08-17T13:54:09.683Z,38.47
2022-08-17T13:56:57.645Z,37.56
2022-08-17T13:59:48.171Z,37.02
2022-08-17T14:02:21.510Z,38.34
2022-08-17T14:04:50.703Z,37.79
2022-08-17T14:07:31.806Z,36.72
2022-08-17T14:10:03.499Z,38.07
2022-08-17T14:12:36.211Z,40.36
2022-08-17T14:15:05.990Z,40.36
2022-08-17T14:17:48.693Z,41.40
2022-08-17T14:20:20.007Z,40.77
2022-08-17T14:22:50.597Z,42.07
2022-08-17T14:25:22.147Z,42.17
2022-08-17T14:27:54.162Z,42.02
2022-08-17T14:30:25.811Z,41.57
2022-08-17T14:32:58.183Z,41.06
2022-08-17T14:35:29.335Z,40.83
2022-08-17T14:37:58.601Z,38.91
2022-08-17T14:40:28.188Z,39.16
2022-08-17T14:42:58.928Z,37.69
2022-08-17T14:45:33.016Z,36.76
2022-08-17T14:48:05.962Z,35.70
2022-08-17T14:50:36.133Z,34.93
2022-08-17T14:53:07.188Z,34.58
2022-08-17T14:55:39.952Z,34.31
2022-08-17T14:58:10.442Z,33.99
2022-08-17T15:00:40.966Z,33.98
2022-08-17T15:03:11.608Z,33.47
2022-08-17T15:05:40.702Z,34.02
2022-08-17T15:08:09.563Z,33.66
2022-08-17T15:10:39.689Z,34.14
2022-08-17T15:13:19.318Z,34.56
2022-08-17T15:15:48.862Z,34.37
2022-08-17T15:18:18.666Z,33.61
2022-08-17T15:20:50.142Z,33.99
2022-08-17T15:23:26.399Z,33.86
2022-08-17T15:25:55.996Z,33.23
2022-08-17T15:28:26.326Z,33.14
2022-08-17T15:30:55.734Z,32.94
2022-08-17T15:33:29.525Z,32.58
2022-08-17T15:36:00.384Z,32.32
2022-08-17T15:38:30.378Z,32.00
2022-08-17T15:40:59.224Z,31.94
2022-08-17T15:43:32.583Z,31.55
2022-08-17T15:46:04.965Z,31.29
2022-08-17T15:48:44.768Z,31.30
2022-08-17T15:51:16.597Z,30.34
2022-08-17T15:53:47.535Z,30.35
2022-08-17T15:56:16.574Z,30.68
2022-08-17T15:58:48.291Z,30.48
2022-08-17T16:03:01.961Z,30.37
2022-08-17T16:04:26.568Z,30.44
2022-08-17T16:06:58.809Z,30.13
2022-08-17T16:09:27.774Z,30.18
2022-08-17T16:11:56.854Z,30.25
2022-08-17T16:14:33.798Z,29.70
2022-08-17T16:17:04.572Z,29.35
2022-08-17T16:19:34.419Z,29.43
2022-08-17T16:22:04.957Z,29.51
2022-08-17T16:24:34.940Z,29.41
2022-08-17T16:27:04.491Z,29.52
2022-08-17T16:29:43.604Z,29.52
2022-08-17T16:32:14.672Z,29.38
2022-08-17T16:34:43.925Z,29.30
2022-08-17T16:37:13.658Z,29.19
2022-08-17T16:39:42.577Z,29.12
2022-08-17T16:42:24.934Z,29.03
2022-08-17T16:44:57.004Z,29.04
2022-08-17T16:47:26.519Z,28.79
2022-08-17T16:49:55.396Z,28.75
2022-08-17T16:52:32.185Z,28.75
2022-08-17T16:55:03.626Z,28.55
2022-08-17T16:57:32.507Z,28.51
2022-08-17T17:00:02.929Z,28.44
2022-08-17T17:02:36.378Z,28.31
2022-08-17T17:05:10.754Z,28.36
2022-08-17T17:07:52.096Z,28.31
2022-08-17T17:10:24.097Z,28.04
2022-08-17T17:13:02.457Z,27.92
2022-08-17T17:15:52.257Z,27.90
2022-08-17T17:18:24.304Z,27.74
2022-08-17T17:20:56.875Z,27.72
2022-08-17T17:23:46.202Z,27.64
2022-08-17T17:26:31.786Z,27.55
2022-08-17T17:29:21.201Z,27.35
2022-08-17T17:31:58.097Z,27.28
2022-08-17T17:34:30.132Z,27.37
2022-08-17T17:37:04.129Z,27.33
2022-08-17T17:39:43.804Z,26.84
2022-08-17T17:42:20.253Z,27.22
2022-08-17T17:44:55.590Z,27.03
2022-08-17T17:47:26.690Z,27.05
2022-08-17T17:49:55.919Z,27.04
2022-08-17T17:52:37.343Z,26.89
2022-08-17T17:55:30.086Z,27.04
2022-08-17T17:58:10.407Z,26.95
2022-08-17T18:00:50.246Z,26.82
2022-08-17T18:03:35.997Z,26.60
2022-08-17T18:06:21.880Z,26.75
2022-08-17T18:09:04.387Z,26.75
2022-08-17T18:11:51.743Z,26.68
2022-08-17T18:14:34.188Z,26.60
2022-08-17T18:17:03.176Z,26.41
2022-08-17T18:19:33.916Z,26.49
2022-08-17T18:22:13.986Z,25.90
2022-08-17T18:24:45.719Z,26.17
2022-08-17T18:27:25.666Z,26.43
2022-08-17T18:29:57.252Z,26.32
2022-08-17T18:32:36.131Z,26.27
2022-08-17T18:35:35.294Z,26.30
2022-08-17T18:38:23.386Z,26.30
2022-08-17T18:41:00.509Z,26.25
2022-08-17T18:43:43.951Z,26.30
2022-08-17T18:46:29.977Z,26.26
2022-08-17T18:49:01.411Z,26.26
2022-08-17T18:51:41.835Z,26.19
2022-08-17T18:54:22.624Z,26.06
2022-08-17T18:56:58.125Z,26.00
2022-08-17T18:59:40.314Z,25.94
2022-08-17T19:02:44.738Z,25.66
2022-08-17T19:05:26.667Z,25.79
2022-08-17T19:08:16.837Z,25.80
2022-08-17T19:10:48.436Z,25.79
2022-08-17T19:13:21.856Z,25.80
2022-08-17T19:16:12.338Z,25.79
2022-08-17T19:18:49.892Z,25.70
2022-08-17T19:21:23.221Z,25.59
2022-08-17T19:24:05.008Z,25.43
2022-08-17T19:26:53.928Z,25.49
2022-08-17T19:29:34.405Z,25.53
2022-08-17T19:32:04.252Z,25.56
2022-08-17T19:34:36.726Z,25.37
2022-08-17T19:37:12.650Z,25.42
2022-08-17T19:39:53.040Z,25.47
2022-08-17T19:42:40.704Z,25.30
2022-08-17T19:45:20.903Z,25.37
2022-08-17T19:48:04.987Z,25.33
2022-08-17T19:50:41.148Z,25.14
2022-08-17T19:53:21.436Z,25.18
2022-08-17T19:56:04.959Z,25.22
2022-08-17T19:58:53.991Z,25.14
2022-08-17T20:01:34.902Z,25.06
2022-08-17T20:04:12.051Z,25.13
2022-08-17T20:06:47.326Z,25.00
2022-08-17T20:09:33.351Z,25.02
2022-08-17T20:12:08.397Z,25.09
2022-08-17T20:14:51.682Z,25.04
2022-08-17T20:17:26.095Z,24.90
2022-08-17T20:20:04.665Z,25.01
2022-08-17T20:22:52.216Z,24.93
2022-08-17T20:25:36.025Z,24.53
2022-08-17T20:28:16.054Z,24.90
2022-08-17T20:30:45.538Z,24.91
2022-08-17T20:33:26.419Z,24.46
2022-08-17T20:36:15.245Z,24.74
2022-08-17T20:38:47.020Z,24.68
2022-08-17T20:41:22.380Z,24.53
2022-08-17T20:44:05.243Z,24.65
2022-08-17T20:47:06.694Z,24.53
2022-08-17T20:49:49.030Z,24.44
2022-08-17T20:52:49.353Z,24.61
2022-08-17T20:55:54.901Z,24.46
2022-08-17T20:58:49.908Z,23.78
2022-08-17T21:01:37.182Z,24.42
2022-08-17T21:04:09.164Z,24.32
2022-08-17T21:07:17.572Z,24.21
2022-08-17T21:09:47.773Z,24.14
2022-08-17T21:12:48.107Z,24.45
2022-08-17T21:15:35.004Z,24.39
2022-08-17T21:18:12.611Z,24.27
2022-08-17T21:20:58.155Z,24.44
2022-08-17T21:23:54.843Z,24.36
2022-08-17T21:26:31.617Z,24.14
2022-08-17T21:29:30.049Z,24.15
2022-08-17T21:32:24.422Z,24.26
2022-08-17T21:35:12.561Z,24.25
2022-08-17T21:37:44.122Z,24.11
2022-08-17T21:40:25.419Z,24.02
2022-08-17T21:42:58.291Z,24.07
2022-08-17T21:45:30.750Z,23.91
2022-08-17T21:48:18.579Z,24.04
2022-08-17T21:50:59.265Z,23.95
2022-08-17T21:53:36.629Z,23.90
2022-08-17T21:56:07.150Z,23.83
2022-08-17T21:58:41.085Z,23.80
2022-08-17T22:01:21.993Z,23.79
2022-08-17T22:03:58.461Z,23.75
2022-08-17T22:06:29.710Z,23.65
2022-08-17T22:09:05.117Z,23.64
2022-08-17T22:12:05.750Z,23.69
2022-08-17T22:14:52.553Z,23.58
2022-08-17T22:17:24.915Z,23.42
2022-08-17T22:19:57.445Z,23.53
2022-08-17T22:22:32.440Z,23.55
2022-08-17T22:25:04.288Z,23.48
2022-08-17T22:27:54.541Z,23.50
2022-08-17T22:30:36.432Z,23.54
2022-08-17T22:33:31.390Z,23.45
2022-08-17T22:36:25.161Z,23.33
2022-08-17T22:38:56.495Z,23.42
2022-08-17T22:42:26.919Z,23.36
2022-08-17T22:44:55.647Z,23.43
2022-08-17T22:47:38.863Z,23.37
2022-08-17T22:50:22.059Z,23.49
2022-08-17T22:53:16.535Z,23.35
2022-08-17T22:56:11.395Z,23.40
2022-08-17T22:59:02.476Z,23.20
2022-08-17T23:01:34.847Z,23.19
2022-08-17T23:04:07.549Z,22.98
2022-08-17T23:06:39.014Z,23.23
2022-08-17T23:09:08.506Z,23.20
2022-08-17T23:11:49.547Z,22.87
2022-08-17T23:14:21.575Z,23.14
2022-08-17T23:16:51.364Z,23.11
2022-08-17T23:19:22.985Z,23.04
2022-08-17T23:21:52.802Z,23.08
2022-08-17T23:24:25.104Z,23.16
2022-08-17T23:26:54.224Z,23.03
2022-08-17T23:29:25.550Z,22.99
2022-08-17T23:31:57.476Z,22.94
2022-08-17T23:34:28.169Z,22.39
2022-08-17T23:36:57.266Z,22.85
2022-08-17T23:39:27.774Z,22.44
2022-08-17T23:41:58.149Z,22.88
2022-08-17T23:44:27.321Z,22.71
2022-08-17T23:46:56.413Z,22.76
2022-08-17T23:49:25.574Z,22.78
2022-08-17T23:51:55.875Z,22.65
2022-08-17T23:54:28.250Z,22.59
2022-08-17T23:56:57.185Z,22.65
2022-08-17T23:59:27.556Z,22.72
